createdAt,value
2023-04-07T00:00:29.278Z,73.28
2023-04-07T00:02:59.565Z,72.50
2023-04-07T00:05:29.368Z,75.38
2023-04-07T00:07:59.356Z,79.35
2023-04-07T00:10:29.283Z,80.85
2023-04-07T00:12:59.301Z,77.75
2023-04-07T00:15:29.234Z,71.85
2023-04-07T00:17:59.417Z,71.43
2023-04-07T00:20:29.311Z,71.47
2023-04-07T00:22:59.251Z,68.68
2023-04-07T00:25:29.044Z,68.10
2023-04-07T00:27:59.160Z,68.18
2023-04-07T00:30:29.183Z,67.28
2023-04-07T00:32:59.455Z,65.10
2023-04-07T00:35:29.546Z,63.78
2023-04-07T00:37:59.640Z,72.90
2023-04-07T00:40:29.654Z,66.55
2023-04-07T00:43:00.066Z,68.10
2023-04-07T00:45:30.688Z,66.50
2023-04-07T00:48:01.057Z,65.28
2023-04-07T00:50:31.271Z,65.65
2023-04-07T00:53:01.582Z,65.50
2023-04-07T00:55:31.715Z,68.05
2023-04-07T00:58:01.997Z,65.75
2023-04-07T01:00:38.335Z,62.58
2023-04-07T01:03:13.926Z,63.28
2023-04-07T01:05:57.868Z,61.25
2023-04-07T01:08:40.663Z,61.97
2023-04-07T01:11:46.195Z,63.63
2023-04-07T01:14:22.087Z,66.15
2023-04-07T01:17:06.024Z,66.80
2023-04-07T01:20:00.335Z,65.95
2023-04-07T01:22:45.609Z,66.07
2023-04-07T01:25:54.686Z,65.88
2023-04-07T01:28:56.529Z,66.75
2023-04-07T01:31:29.331Z,64.57
2023-04-07T01:34:02.679Z,65.47
2023-04-07T01:36:35.639Z,67.53
2023-04-07T01:39:09.349Z,67.28
2023-04-07T01:41:41.392Z,65.50
2023-04-07T01:44:13.287Z,67.38
2023-04-07T01:46:44.103Z,66.95
2023-04-07T01:49:15.363Z,63.58
2023-04-07T01:51:46.913Z,66.72
2023-04-07T01:54:17.220Z,66.78
2023-04-07T01:56:47.964Z,66.55
2023-04-07T01:59:18.680Z,69.93
2023-04-07T02:01:50.596Z,65.30
2023-04-07T02:04:42.498Z,65.93
2023-04-07T02:07:21.609Z,65.32
2023-04-07T02:09:56.132Z,63.20
2023-04-07T02:12:29.042Z,68.35
2023-04-07T02:15:13.183Z,64.90
2023-04-07T02:17:50.697Z,66.78
2023-04-07T02:20:23.599Z,66.80
2023-04-07T02:22:53.723Z,65.65
2023-04-07T02:25:26.438Z,67.00
2023-04-07T02:27:59.287Z,67.47
2023-04-07T02:30:30.344Z,66.78
2023-04-07T02:33:00.269Z,66.70
2023-04-07T02:35:30.617Z,67.65
2023-04-07T02:38:09.770Z,70.15
2023-04-07T02:40:48.981Z,67.32
2023-04-07T02:43:20.605Z,67.05
2023-04-07T02:45:54.261Z,67.57
2023-04-07T02:48:24.275Z,65.90
2023-04-07T02:50:54.059Z,67.30
2023-04-07T02:53:24.292Z,69.53
2023-04-07T02:55:54.160Z,66.68
2023-04-07T02:58:24.338Z,68.20
2023-04-07T03:00:54.326Z,67.50
2023-04-07T03:03:28.230Z,66.90
2023-04-07T03:06:10.053Z,69.75
2023-04-07T03:08:49.227Z,69.00
2023-04-07T03:11:20.146Z,67.22
2023-04-07T03:13:50.228Z,67.90
2023-04-07T03:16:20.856Z,68.63
2023-04-07T03:19:03.822Z,67.82
2023-04-07T03:21:40.136Z,68.68
2023-04-07T03:24:11.255Z,68.50
2023-04-07T03:26:41.677Z,70.38
2023-04-07T03:29:22.220Z,67.47
2023-04-07T03:31:52.522Z,68.60
2023-04-07T03:34:25.975Z,66.43
2023-04-07T03:36:56.025Z,66.10
2023-04-07T03:39:26.135Z,65.70
2023-04-07T03:42:00.531Z,68.43
2023-04-07T03:44:34.289Z,68.53
2023-04-07T03:47:04.364Z,70.05
2023-04-07T03:49:35.770Z,68.55
2023-04-07T03:52:06.752Z,69.30
2023-04-07T03:54:37.572Z,70.65
2023-04-07T03:57:08.675Z,69.20
2023-04-07T03:59:44.899Z,71.05
2023-04-07T04:02:15.268Z,68.00
2023-04-07T04:04:45.770Z,67.07
2023-04-07T04:07:16.843Z,71.35
2023-04-07T04:09:51.082Z,69.68
2023-04-07T04:12:21.959Z,69.03
2023-04-07T04:15:04.935Z,69.20
2023-04-07T04:17:35.114Z,71.20
2023-04-07T04:20:07.343Z,70.63
2023-04-07T04:22:45.937Z,70.75
2023-04-07T04:25:15.951Z,68.47
2023-04-07T04:27:50.359Z,69.25
2023-04-07T04:30:24.461Z,67.85
2023-04-07T04:32:59.596Z,69.65
2023-04-07T04:35:38.137Z,67.65
2023-04-07T04:38:18.517Z,67.45
2023-04-07T04:41:01.208Z,68.03
2023-04-07T04:43:33.605Z,72.50
2023-04-07T04:46:05.485Z,68.68
2023-04-07T04:48:40.520Z,68.53
2023-04-07T04:51:10.668Z,67.72
2023-04-07T04:53:43.339Z,74.07
2023-04-07T04:56:13.619Z,72.80
2023-04-07T04:58:50.380Z,73.15
2023-04-07T05:01:40.109Z,77.03
2023-04-07T05:04:14.359Z,74.53
2023-04-07T05:06:50.744Z,69.75
2023-04-07T05:09:24.061Z,71.53
2023-04-07T05:11:54.284Z,75.80
2023-04-07T05:14:24.736Z,70.88
2023-04-07T05:17:01.416Z,69.57
2023-04-07T05:19:32.637Z,69.38
2023-04-07T05:22:08.511Z,68.40
2023-04-07T05:24:45.867Z,65.70
2023-04-07T05:27:15.879Z,64.30
2023-04-07T05:29:47.736Z,66.18
2023-04-07T05:32:26.830Z,82.45
2023-04-07T05:34:57.939Z,85.68
2023-04-07T05:37:33.004Z,85.13
2023-04-07T05:40:07.069Z,67.68
2023-04-07T05:42:37.440Z,65.90
2023-04-07T05:45:07.908Z,65.45
2023-04-07T05:47:41.800Z,66.38
2023-04-07T05:50:15.553Z,63.30
2023-04-07T05:52:48.530Z,62.08
2023-04-07T05:55:27.319Z,64.68
2023-04-07T05:57:58.115Z,63.80
2023-04-07T06:00:31.481Z,65.50
2023-04-07T06:03:08.173Z,61.67
2023-04-07T06:05:49.854Z,64.20
2023-04-07T06:08:23.114Z,64.55
2023-04-07T06:10:53.116Z,63.13
2023-04-07T06:13:22.958Z,64.40
2023-04-07T06:15:53.141Z,63.38
2023-04-07T06:18:22.843Z,63.95
2023-04-07T06:20:52.867Z,65.28
2023-04-07T06:23:22.665Z,63.10
2023-04-07T06:25:54.749Z,63.03
2023-04-07T06:28:25.346Z,63.88
2023-04-07T06:30:55.563Z,63.50
2023-04-07T06:33:27.214Z,65.15
2023-04-07T06:35:58.018Z,62.25
2023-04-07T06:38:31.279Z,63.63
2023-04-07T06:41:01.373Z,64.07
2023-04-07T06:43:32.149Z,66.40
2023-04-07T06:46:07.630Z,65.88
2023-04-07T06:48:37.683Z,63.42
2023-04-07T06:51:07.552Z,63.90
2023-04-07T06:53:38.048Z,64.32
2023-04-07T06:56:10.518Z,63.55
2023-04-07T06:58:41.176Z,61.85
2023-04-07T07:01:10.996Z,62.38
2023-04-07T07:03:43.496Z,61.33
2023-04-07T07:06:13.549Z,62.47
2023-04-07T07:08:43.326Z,61.63
2023-04-07T07:11:13.442Z,62.70
2023-04-07T07:13:43.167Z,61.20
2023-04-07T07:16:14.280Z,62.78
2023-04-07T07:18:44.676Z,62.45
2023-04-07T07:21:14.370Z,60.25
2023-04-07T07:23:44.492Z,60.95
2023-04-07T07:26:14.265Z,61.17
2023-04-07T07:28:53.379Z,60.85
2023-04-07T07:31:23.470Z,60.40
2023-04-07T07:33:53.552Z,59.92
2023-04-07T07:36:23.527Z,60.40
2023-04-07T07:38:53.886Z,60.40
2023-04-07T07:41:23.986Z,60.50
2023-04-07T07:43:54.437Z,61.50
2023-04-07T07:46:25.943Z,62.85
2023-04-07T07:48:56.184Z,59.83
2023-04-07T07:51:25.948Z,60.20
2023-04-07T07:53:55.969Z,61.03
2023-04-07T07:56:25.714Z,58.85
2023-04-07T07:58:58.056Z,60.00
2023-04-07T08:01:28.408Z,58.28
2023-04-07T08:03:58.380Z,57.88
2023-04-07T08:06:30.709Z,57.83
2023-04-07T08:09:00.812Z,57.78
2023-04-07T08:11:30.599Z,56.65
2023-04-07T08:14:00.562Z,57.17
2023-04-07T08:16:30.478Z,59.30
2023-04-07T08:19:00.446Z,61.53
2023-04-07T08:21:30.534Z,61.95
2023-04-07T08:24:00.535Z,60.47
2023-04-07T08:26:30.637Z,57.33
2023-04-07T08:29:00.600Z,55.40
2023-04-07T08:31:30.413Z,58.53
2023-04-07T08:34:01.034Z,58.13
2023-04-07T08:36:31.636Z,55.65
2023-04-07T08:39:03.736Z,54.97
2023-04-07T08:41:40.698Z,54.20
2023-04-07T08:44:12.476Z,57.08
2023-04-07T08:46:42.792Z,56.33
2023-04-07T08:49:15.431Z,58.08
2023-04-07T08:51:49.864Z,58.97
2023-04-07T08:54:23.152Z,62.22
2023-04-07T08:56:53.649Z,62.28
2023-04-07T08:59:28.327Z,65.35
2023-04-07T09:01:58.891Z,62.88
2023-04-07T09:04:30.514Z,62.90
2023-04-07T09:07:00.307Z,66.00
2023-04-07T09:09:31.185Z,63.15
2023-04-07T09:12:02.179Z,62.08
2023-04-07T09:14:34.929Z,59.10
2023-04-07T09:17:08.039Z,58.50
2023-04-07T09:19:38.040Z,62.25
2023-04-07T09:22:07.967Z,59.40
2023-04-07T09:24:37.914Z,61.80
2023-04-07T09:27:19.778Z,58.85
2023-04-07T09:29:50.436Z,57.05
2023-04-07T09:32:41.108Z,55.70
2023-04-07T09:35:11.977Z,57.13
2023-04-07T09:37:41.853Z,56.42
2023-04-07T09:40:12.451Z,56.10
2023-04-07T09:42:49.891Z,58.05
2023-04-07T09:45:34.698Z,60.40
2023-04-07T09:48:29.326Z,59.85
2023-04-07T09:51:08.760Z,58.80
2023-04-07T09:53:50.893Z,57.35
2023-04-07T09:56:23.897Z,54.78
2023-04-07T09:58:54.626Z,54.92
2023-04-07T10:01:24.814Z,57.13
2023-04-07T10:03:55.189Z,56.78
2023-04-07T10:06:25.425Z,56.25
2023-04-07T10:08:55.203Z,57.55
2023-04-07T10:11:25.217Z,57.88
2023-04-07T10:13:55.234Z,57.47
2023-04-07T10:16:26.172Z,56.70
2023-04-07T10:18:56.201Z,58.15
2023-04-07T10:21:29.040Z,60.80
2023-04-07T10:24:24.685Z,62.60
2023-04-07T10:26:59.665Z,66.10
2023-04-07T10:29:36.396Z,86.50
2023-04-07T10:32:06.795Z,62.50
2023-04-07T10:34:59.557Z,62.08
2023-04-07T10:37:30.197Z,60.38
2023-04-07T10:40:38.308Z,62.72
2023-04-07T10:43:16.976Z,63.03
2023-04-07T10:46:05.226Z,61.63
2023-04-07T10:48:35.863Z,59.08
2023-04-07T10:51:23.589Z,56.10
2023-04-07T10:54:22.068Z,57.60
2023-04-07T10:57:13.404Z,55.78
2023-04-07T11:00:04.870Z,57.75
2023-04-07T11:02:35.717Z,55.45
2023-04-07T11:05:06.823Z,54.47
2023-04-07T11:08:00.809Z,53.25
2023-04-07T11:10:31.167Z,55.67
2023-04-07T11:13:06.509Z,54.05
2023-04-07T11:15:40.295Z,55.75
2023-04-07T11:18:20.464Z,53.15
2023-04-07T11:21:00.610Z,54.80
2023-04-07T11:23:31.023Z,54.53
2023-04-07T11:26:05.239Z,54.92
2023-04-07T11:28:35.455Z,57.00
2023-04-07T11:31:05.865Z,60.08
2023-04-07T11:33:38.510Z,58.78
2023-04-07T11:36:09.428Z,57.90
2023-04-07T11:38:40.792Z,60.92
2023-04-07T11:41:15.544Z,57.35
2023-04-07T11:43:45.833Z,61.35
2023-04-07T11:46:20.732Z,59.47
2023-04-07T11:48:50.902Z,64.30
2023-04-07T11:51:24.179Z,63.78
2023-04-07T11:53:58.456Z,64.57
2023-04-07T11:56:29.523Z,65.18
2023-04-07T11:59:00.787Z,65.70
2023-04-07T12:01:46.531Z,60.60
2023-04-07T12:04:18.924Z,62.03
2023-04-07T12:06:50.594Z,62.05
2023-04-07T12:09:37.862Z,61.30
2023-04-07T12:12:09.495Z,58.28
2023-04-07T12:14:39.912Z,59.75
2023-04-07T12:17:10.939Z,58.38
2023-04-07T12:19:42.673Z,59.50
2023-04-07T12:22:12.734Z,59.10
2023-04-07T12:24:42.632Z,59.67
2023-04-07T12:27:13.400Z,56.80
2023-04-07T12:29:43.449Z,55.65
2023-04-07T12:32:13.379Z,57.63
2023-04-07T12:34:43.612Z,56.42
2023-04-07T12:37:13.401Z,55.88
2023-04-07T12:39:43.396Z,56.47
2023-04-07T12:42:13.571Z,54.25
2023-04-07T12:44:43.697Z,54.65
2023-04-07T12:47:13.910Z,55.47
2023-04-07T12:49:44.052Z,55.70
2023-04-07T12:52:13.757Z,57.83
2023-04-07T12:54:45.784Z,58.40
2023-04-07T12:57:16.030Z,58.95
2023-04-07T12:59:46.465Z,55.08
2023-04-07T13:02:16.954Z,57.42
2023-04-07T13:04:48.423Z,55.25
2023-04-07T13:07:18.947Z,56.13
2023-04-07T13:09:48.670Z,55.33
2023-04-07T13:12:18.586Z,54.42
2023-04-07T13:14:59.027Z,53.22
2023-04-07T13:17:30.434Z,51.20
2023-04-07T13:20:00.438Z,51.53
2023-04-07T13:22:31.064Z,51.42
2023-04-07T13:25:02.194Z,49.95
2023-04-07T13:27:32.459Z,49.55
2023-04-07T13:30:02.532Z,50.05
2023-04-07T13:32:32.820Z,50.70
2023-04-07T13:35:02.731Z,49.00
2023-04-07T13:37:32.607Z,50.08
2023-04-07T13:40:02.631Z,49.55
2023-04-07T13:42:32.520Z,49.97
2023-04-07T13:45:02.932Z,48.17
2023-04-07T13:47:35.771Z,49.03
2023-04-07T13:50:06.334Z,48.83
2023-04-07T13:52:36.767Z,49.67
2023-04-07T13:55:07.215Z,48.33
2023-04-07T13:57:37.031Z,49.58
2023-04-07T14:00:08.888Z,50.63
2023-04-07T14:02:38.980Z,51.90
2023-04-07T14:05:08.997Z,50.78
2023-04-07T14:07:38.927Z,52.15
2023-04-07T14:10:10.575Z,49.78
2023-04-07T14:12:40.984Z,49.25
2023-04-07T14:15:11.259Z,49.30
2023-04-07T14:17:41.259Z,48.70
2023-04-07T14:20:11.639Z,47.53
2023-04-07T14:22:41.811Z,49.60
2023-04-07T14:25:12.775Z,48.15
2023-04-07T14:27:43.125Z,49.55
2023-04-07T14:30:13.485Z,48.78
2023-04-07T14:32:43.506Z,51.55
2023-04-07T14:35:13.424Z,50.42
2023-04-07T14:37:43.729Z,49.75
2023-04-07T14:40:13.912Z,50.17
2023-04-07T14:42:44.095Z,50.85
2023-04-07T14:45:14.417Z,50.25
2023-04-07T14:47:44.445Z,50.42
2023-04-07T14:50:14.358Z,52.00
2023-04-07T14:52:45.344Z,50.85
2023-04-07T14:55:15.119Z,51.28
2023-04-07T14:57:45.443Z,53.50
2023-04-07T15:00:15.756Z,52.50
2023-04-07T15:02:45.914Z,51.00
2023-04-07T15:05:15.806Z,48.67
2023-04-07T15:07:47.449Z,58.70
2023-04-07T15:10:18.708Z,96.90
2023-04-07T15:12:50.236Z,51.72
2023-04-07T15:15:20.704Z,51.78
2023-04-07T15:17:50.496Z,48.08
2023-04-07T15:20:20.501Z,50.70
2023-04-07T15:22:50.300Z,48.45
2023-04-07T15:25:20.467Z,52.25
2023-04-07T15:27:50.536Z,50.03
2023-04-07T15:30:20.739Z,50.17
2023-04-07T15:33:10.185Z,50.53
2023-04-07T15:35:40.405Z,52.65
2023-04-07T15:38:10.191Z,49.35
2023-04-07T15:40:40.997Z,50.13
2023-04-07T15:43:12.822Z,50.88
2023-04-07T15:45:44.588Z,51.17
2023-04-07T15:48:15.385Z,51.50
2023-04-07T15:50:45.718Z,50.83
2023-04-07T15:53:15.673Z,51.10
2023-04-07T15:55:45.871Z,51.83
2023-04-07T15:58:15.710Z,52.22
2023-04-07T16:00:46.240Z,51.58
2023-04-07T16:03:16.223Z,51.65
2023-04-07T16:05:46.254Z,50.45
2023-04-07T16:08:16.061Z,50.92
2023-04-07T16:10:46.070Z,51.50
2023-04-07T16:13:16.595Z,54.50
2023-04-07T16:15:46.502Z,53.95
2023-04-07T16:18:16.294Z,56.25
2023-04-07T16:20:46.220Z,55.28
2023-04-07T16:23:15.915Z,53.35
2023-04-07T16:25:45.898Z,52.75
2023-04-07T16:28:15.669Z,52.55
2023-04-07T16:30:45.587Z,53.47
2023-04-07T16:33:15.394Z,57.45
2023-04-07T16:35:45.411Z,52.38
2023-04-07T16:38:17.101Z,52.08
2023-04-07T16:41:03.138Z,53.60
2023-04-07T16:43:34.204Z,52.65
2023-04-07T16:46:04.029Z,53.72
2023-04-07T16:48:34.221Z,53.17
2023-04-07T16:51:03.908Z,52.80
2023-04-07T16:53:33.873Z,54.05
2023-04-07T16:56:03.667Z,52.13
2023-04-07T16:58:33.488Z,52.00
2023-04-07T17:01:03.292Z,55.58
2023-04-07T17:03:33.462Z,53.40
2023-04-07T17:06:06.916Z,51.50
2023-04-07T17:08:38.525Z,51.40
2023-04-07T17:11:09.265Z,51.85
2023-04-07T17:13:39.374Z,51.72
2023-04-07T17:16:14.397Z,50.55
2023-04-07T17:18:44.352Z,51.20
2023-04-07T17:21:15.069Z,52.15
2023-04-07T17:23:45.310Z,50.92
2023-04-07T17:26:15.030Z,47.95
2023-04-07T17:28:46.163Z,50.90
2023-04-07T17:31:16.124Z,50.53
2023-04-07T17:33:45.972Z,49.05
2023-04-07T17:36:16.583Z,49.05
2023-04-07T17:38:47.644Z,48.83
2023-04-07T17:41:18.084Z,48.78
2023-04-07T17:43:48.287Z,49.30
2023-04-07T17:46:18.546Z,48.28
2023-04-07T17:48:48.482Z,48.95
2023-04-07T17:51:18.694Z,49.90
2023-04-07T17:53:48.700Z,46.88
2023-04-07T17:56:19.429Z,50.25
2023-04-07T17:58:49.656Z,49.13
2023-04-07T18:01:19.447Z,49.38
2023-04-07T18:03:50.202Z,49.80
2023-04-07T18:06:20.688Z,50.22
2023-04-07T18:08:51.051Z,50.05
2023-04-07T18:11:21.182Z,50.47
2023-04-07T18:13:51.413Z,51.92
2023-04-07T18:16:22.330Z,48.70
2023-04-07T18:18:52.884Z,47.22
2023-04-07T18:21:26.672Z,48.30
2023-04-07T18:23:57.477Z,50.17
2023-04-07T18:26:27.450Z,48.35
2023-04-07T18:28:57.304Z,49.67
2023-04-07T18:31:27.570Z,48.60
2023-04-07T18:33:57.573Z,49.92
2023-04-07T18:36:28.855Z,51.17
2023-04-07T18:38:59.322Z,50.47
2023-04-07T18:41:29.181Z,49.42
2023-04-07T18:43:59.224Z,48.50
2023-04-07T18:46:29.170Z,50.20
2023-04-07T18:48:59.789Z,50.75
2023-04-07T18:51:29.876Z,49.33
2023-04-07T18:54:00.422Z,51.28
2023-04-07T18:56:31.398Z,51.30
2023-04-07T18:59:01.654Z,51.40
2023-04-07T19:01:31.575Z,50.70
2023-04-07T19:04:02.828Z,49.15
2023-04-07T19:06:33.482Z,50.17
2023-04-07T19:09:05.290Z,49.90
2023-04-07T19:11:35.536Z,51.22
2023-04-07T19:14:07.360Z,52.75
2023-04-07T19:16:38.080Z,51.38
2023-04-07T19:19:07.876Z,49.85
2023-04-07T19:21:38.021Z,50.28
2023-04-07T19:24:08.321Z,48.83
2023-04-07T19:26:38.381Z,50.65
2023-04-07T19:29:08.478Z,49.63
2023-04-07T19:31:38.632Z,48.70
2023-04-07T19:34:08.511Z,48.67
2023-04-07T19:36:38.541Z,47.13
2023-04-07T19:39:08.396Z,45.85
2023-04-07T19:41:38.349Z,45.60
2023-04-07T19:44:08.078Z,45.17
2023-04-07T19:46:38.071Z,45.85
2023-04-07T19:49:07.839Z,44.90
2023-04-07T19:51:37.893Z,45.65
2023-04-07T19:54:07.635Z,45.22
2023-04-07T19:56:37.612Z,46.42
2023-04-07T19:59:08.721Z,43.85
2023-04-07T20:01:39.048Z,44.47
2023-04-07T20:04:08.959Z,44.03
2023-04-07T20:06:41.364Z,46.53
2023-04-07T20:09:12.047Z,44.17
2023-04-07T20:11:41.820Z,43.85
2023-04-07T20:14:11.815Z,46.13
2023-04-07T20:16:41.565Z,51.45
2023-04-07T20:19:11.945Z,44.78
2023-04-07T20:21:41.935Z,42.80
2023-04-07T20:24:12.603Z,43.65
2023-04-07T20:26:42.583Z,43.05
2023-04-07T20:29:12.360Z,41.55
2023-04-07T20:31:42.831Z,40.13
2023-04-07T20:34:12.520Z,41.42
2023-04-07T20:36:42.463Z,40.45
2023-04-07T20:39:12.302Z,42.03
2023-04-07T20:41:44.394Z,39.90
2023-04-07T20:44:14.417Z,40.05
2023-04-07T20:46:45.543Z,41.72
2023-04-07T20:49:15.832Z,40.35
2023-04-07T20:51:46.198Z,40.20
2023-04-07T20:54:16.321Z,41.05
2023-04-07T20:56:46.576Z,41.72
2023-04-07T20:59:16.482Z,42.97
2023-04-07T21:01:48.163Z,39.83
2023-04-07T21:04:18.636Z,40.97
2023-04-07T21:06:49.024Z,39.47
2023-04-07T21:09:19.447Z,40.58
2023-04-07T21:11:49.452Z,40.30
2023-04-07T21:14:19.207Z,41.70
2023-04-07T21:16:49.299Z,40.53
2023-04-07T21:19:19.292Z,40.53
2023-04-07T21:21:49.210Z,40.83
2023-04-07T21:24:18.957Z,40.40
2023-04-07T21:26:48.857Z,40.65
2023-04-07T21:29:18.560Z,42.35
2023-04-07T21:31:48.641Z,42.33
2023-04-07T21:34:18.757Z,42.78
2023-04-07T21:36:48.944Z,41.63
2023-04-07T21:39:19.234Z,41.67
2023-04-07T21:41:49.141Z,39.70
2023-04-07T21:44:21.647Z,41.20
2023-04-07T21:46:52.046Z,39.30
2023-04-07T21:49:23.811Z,39.50
2023-04-07T21:51:53.973Z,39.03
2023-04-07T21:54:24.556Z,39.72
2023-04-07T21:56:54.466Z,40.88
2023-04-07T21:59:24.216Z,40.75
2023-04-07T22:01:54.227Z,41.25
2023-04-07T22:04:24.470Z,42.78
2023-04-07T22:06:54.565Z,41.25
2023-04-07T22:09:24.448Z,40.97
2023-04-07T22:11:54.378Z,41.33
2023-04-07T22:14:26.513Z,42.80
2023-04-07T22:16:57.112Z,41.03
2023-04-07T22:19:27.139Z,42.20
2023-04-07T22:21:57.267Z,43.33
2023-04-07T22:24:27.318Z,43.63
2023-04-07T22:26:57.466Z,42.05
2023-04-07T22:29:27.310Z,42.17
2023-04-07T22:31:57.558Z,41.67
2023-04-07T22:34:27.842Z,42.30
2023-04-07T22:36:57.826Z,43.88
2023-04-07T22:39:28.293Z,42.85
2023-04-07T22:41:58.229Z,42.55
2023-04-07T22:44:28.016Z,43.60
2023-04-07T22:46:58.741Z,44.95
2023-04-07T22:49:29.654Z,43.35
2023-04-07T22:51:59.670Z,44.80
2023-04-07T22:54:29.379Z,44.42
2023-04-07T22:56:59.530Z,46.03
2023-04-07T22:59:29.293Z,47.75
2023-04-07T23:01:59.874Z,45.75
2023-04-07T23:04:29.651Z,43.13
2023-04-07T23:06:59.631Z,41.78
2023-04-07T23:09:29.445Z,41.15
2023-04-07T23:11:59.421Z,43.67
2023-04-07T23:14:29.155Z,44.35
2023-04-07T23:16:59.223Z,45.30
2023-04-07T23:19:29.116Z,43.95
2023-04-07T23:21:59.096Z,43.05
2023-04-07T23:24:28.843Z,47.00
2023-04-07T23:26:59.297Z,47.38
2023-04-07T23:29:29.346Z,45.72
2023-04-07T23:31:59.472Z,45.85
2023-04-07T23:34:29.342Z,47.97
2023-04-07T23:36:59.423Z,46.08
2023-04-07T23:39:29.161Z,45.92
2023-04-07T23:41:59.469Z,44.28
2023-04-07T23:44:29.392Z,43.97
2023-04-07T23:46:59.111Z,44.45
2023-04-07T23:49:30.654Z,42.38
2023-04-07T23:52:00.584Z,43.78
2023-04-07T23:54:30.260Z,43.42
2023-04-07T23:57:00.142Z,46.50
2023-04-07T23:59:30.168Z,46.60
